YXX weather

Abbotsford Airport
Abbotsford, British Columbia, Canada

Public forecast

Using degrees Celsius for public forecast. Weather courtesy of forecast.io.

METAR (pilot weather report)

Retrieved 2019/01/17 16:00 UTC (55 minutes ago):

CYXX 171600Z 05005KT 20SM BKN059 BKN088 OVC160 05/01 A2950 RMK SC6AC1AC1 SLP993

TAF (pilot weather forecast)

Retrieved 2019/01/17 12:39 UTC (4 hours ago):

TAF CYXX 171138Z 1712/1812 06005KT P6SM FEW040 BKN080 OVC140 TEMPO 1712/1718 P6SM -SHRA FM171800 05008KT P6SM -SHRA FEW025 OVC050 FM180300 05010KT P6SM -RA BKN020 OVC040 RMK NXT FCST BY 171800Z